createdAt,value
2022-07-25T00:00:00.981Z,0.0
2022-07-25T00:05:00.494Z,0.0
2022-07-25T00:10:00.238Z,0.0
2022-07-25T00:15:00.282Z,0.0
2022-07-25T00:20:00.361Z,0.0
2022-07-25T00:25:00.239Z,0.0
2022-07-25T00:30:00.314Z,0.0
2022-07-25T00:35:00.305Z,0.0
2022-07-25T00:40:00.319Z,0.0
2022-07-25T00:45:00.355Z,0.0
2022-07-25T00:50:00.289Z,0.2
2022-07-25T00:55:00.264Z,1.2
2022-07-25T01:00:00.320Z,0.7
2022-07-25T01:05:00.280Z,0.8
2022-07-25T01:10:00.347Z,0.2
2022-07-25T01:15:00.302Z,1.3
2022-07-25T01:20:00.286Z,0.2
2022-07-25T01:25:00.257Z,0.2
2022-07-25T01:30:00.309Z,2.0
2022-07-25T01:35:00.307Z,0.6
2022-07-25T01:40:00.332Z,0.4
2022-07-25T01:45:00.289Z,0.1
2022-07-25T01:50:00.292Z,1.0
2022-07-25T01:55:00.838Z,0.4
2022-07-25T02:00:00.364Z,0.2
2022-07-25T02:05:00.483Z,1.0
2022-07-25T02:10:00.263Z,0.5
2022-07-25T02:15:00.271Z,0.2
2022-07-25T02:20:00.290Z,1.3
2022-07-25T02:25:00.267Z,1.4
2022-07-25T02:30:00.243Z,0.7
2022-07-25T02:35:00.279Z,0.7
2022-07-25T02:40:00.253Z,1.7
2022-07-25T02:45:00.300Z,1.9
2022-07-25T02:50:00.285Z,1.0
2022-07-25T02:55:00.270Z,0.2
2022-07-25T03:00:00.312Z,0.7
2022-07-25T03:05:00.354Z,0.3
2022-07-25T03:10:00.261Z,0.7
2022-07-25T03:15:00.287Z,0.3
2022-07-25T03:20:00.274Z,0.3
2022-07-25T03:25:00.265Z,0.4
2022-07-25T03:30:00.280Z,0.0
2022-07-25T03:35:00.282Z,0.0
2022-07-25T03:40:00.293Z,0.2
2022-07-25T03:45:00.279Z,0.0
2022-07-25T03:50:00.257Z,0.3
2022-07-25T03:55:00.291Z,0.0
2022-07-25T04:00:00.377Z,0.0
2022-07-25T04:05:00.223Z,0.0
2022-07-25T04:10:00.276Z,0.0
2022-07-25T04:15:00.286Z,0.0
2022-07-25T04:20:00.358Z,0.2
2022-07-25T04:25:00.279Z,0.0
2022-07-25T04:30:00.292Z,0.0
2022-07-25T04:35:00.266Z,0.0
2022-07-25T04:40:00.244Z,0.5
2022-07-25T04:45:00.283Z,2.2
2022-07-25T04:50:00.317Z,3.6
2022-07-25T04:55:00.296Z,2.0
2022-07-25T05:00:00.338Z,4.2
2022-07-25T05:05:03.361Z,1.5
2022-07-25T05:10:00.275Z,1.5
2022-07-25T05:15:00.282Z,3.1
2022-07-25T05:20:00.277Z,2.0
2022-07-25T05:25:00.299Z,4.7
2022-07-25T05:30:00.391Z,3.6
2022-07-25T05:35:00.252Z,2.3
2022-07-25T05:40:00.263Z,4.9
2022-07-25T05:45:00.264Z,2.6
2022-07-25T05:50:00.233Z,5.4
2022-07-25T05:55:00.269Z,5.2
2022-07-25T06:00:00.294Z,4.5
2022-07-25T06:05:00.245Z,2.6
2022-07-25T06:10:00.316Z,3.1
2022-07-25T06:15:00.250Z,5.2
2022-07-25T06:20:00.281Z,2.7
2022-07-25T06:25:00.255Z,2.7
2022-07-25T06:30:00.231Z,5.4
2022-07-25T06:35:00.249Z,0.7
2022-07-25T06:40:00.332Z,6.1
2022-07-25T06:45:00.294Z,2.0
2022-07-25T06:50:00.266Z,6.1
2022-07-25T06:55:00.279Z,3.0
2022-07-25T07:00:00.271Z,6.6
2022-07-25T07:05:00.270Z,4.1
2022-07-25T07:10:00.288Z,1.3
2022-07-25T07:15:00.282Z,7.9
2022-07-25T07:20:00.941Z,4.6
2022-07-25T07:25:00.267Z,4.9
2022-07-25T07:30:00.252Z,5.3
2022-07-25T07:35:00.278Z,9.9
2022-07-25T07:40:00.265Z,7.1
2022-07-25T07:45:00.294Z,4.7
2022-07-25T07:50:00.259Z,6.9
2022-07-25T07:55:00.271Z,7.1
2022-07-25T08:00:00.283Z,4.1
2022-07-25T08:05:00.268Z,2.8
2022-07-25T08:10:00.276Z,3.2
2022-07-25T08:15:00.281Z,6.5
2022-07-25T08:20:35.612Z,4.9
2022-07-25T08:25:00.403Z,5.9
2022-07-25T08:30:00.298Z,5.8
2022-07-25T08:35:00.299Z,6.9
2022-07-25T08:40:00.362Z,9.2
2022-07-25T08:45:00.235Z,7.9
2022-07-25T08:50:04.726Z,7.1
2022-07-25T08:55:00.278Z,4.6
2022-07-25T09:00:00.336Z,7.3
2022-07-25T09:05:00.280Z,4.6
2022-07-25T09:10:00.314Z,5.1
2022-07-25T09:15:00.615Z,6.7
2022-07-25T09:20:00.290Z,3.7
2022-07-25T09:25:00.284Z,9.6
2022-07-25T09:30:00.278Z,6.8
2022-07-25T09:35:00.259Z,8.9
2022-07-25T09:40:00.326Z,7.0
2022-07-25T09:45:00.338Z,4.3
2022-07-25T09:50:00.325Z,8.3
2022-07-25T09:55:00.307Z,5.8
2022-07-25T10:00:00.323Z,8.1
2022-07-25T10:05:00.316Z,6.8
2022-07-25T10:10:00.377Z,5.4
2022-07-25T10:15:00.289Z,9.4
2022-07-25T10:20:00.301Z,8.5
2022-07-25T10:25:00.400Z,8.2
2022-07-25T10:30:00.281Z,10.6
2022-07-25T10:35:00.313Z,10.1
2022-07-25T10:40:00.304Z,5.8
2022-07-25T10:45:00.301Z,7.9
2022-07-25T10:50:29.515Z,6.5
2022-07-25T10:55:00.319Z,8.7
2022-07-25T11:00:00.407Z,11.8
2022-07-25T11:05:00.313Z,10.9
2022-07-25T11:10:00.312Z,16.3
2022-07-25T11:15:00.311Z,11.5
2022-07-25T11:20:00.360Z,7.5
2022-07-25T11:25:00.301Z,7.5
2022-07-25T11:30:00.297Z,7.9
2022-07-25T11:35:00.312Z,13.6
2022-07-25T11:40:00.300Z,14.7
2022-07-25T11:45:00.291Z,9.2
2022-07-25T11:50:00.305Z,10.1
2022-07-25T11:55:00.266Z,11.4
2022-07-25T12:00:00.495Z,11.6
2022-07-25T12:05:00.264Z,10.5
2022-07-25T12:10:00.296Z,9.8
2022-07-25T12:15:00.263Z,9.6
2022-07-25T12:20:00.262Z,10.9
2022-07-25T12:25:00.284Z,6.4
2022-07-25T12:30:00.277Z,4.8
2022-07-25T12:35:00.307Z,6.9
2022-07-25T12:40:00.425Z,10.9
2022-07-25T12:45:00.262Z,12.6
2022-07-25T12:50:00.298Z,9.2
2022-07-25T12:55:00.299Z,12.3
2022-07-25T13:00:00.277Z,7.1
2022-07-25T13:05:00.363Z,8.0
2022-07-25T13:10:00.629Z,4.9
2022-07-25T13:15:00.319Z,7.3
2022-07-25T13:20:00.734Z,8.1
2022-07-25T13:25:00.362Z,5.7
2022-07-25T13:30:00.424Z,8.9
2022-07-25T13:35:00.322Z,7.8
2022-07-25T13:40:00.342Z,7.2
2022-07-25T13:45:00.327Z,8.6
2022-07-25T13:50:00.323Z,5.0
2022-07-25T13:55:00.311Z,7.4
2022-07-25T14:00:00.307Z,6.8
2022-07-25T14:05:04.481Z,4.6
2022-07-25T14:10:02.319Z,7.9
2022-07-25T14:15:00.270Z,12.0
2022-07-25T14:20:00.302Z,10.7
2022-07-25T14:25:00.264Z,8.7
2022-07-25T14:30:00.251Z,9.3
2022-07-25T14:35:00.305Z,7.9
2022-07-25T14:40:00.261Z,6.8
2022-07-25T14:45:00.278Z,5.9
2022-07-25T14:50:00.430Z,7.9
2022-07-25T14:55:00.245Z,5.7
2022-07-25T15:00:00.327Z,6.2
2022-07-25T15:05:00.455Z,6.5
2022-07-25T15:10:00.318Z,10.0
2022-07-25T15:15:00.276Z,4.7
2022-07-25T15:20:00.259Z,5.7
2022-07-25T15:25:45.267Z,7.1
2022-07-25T15:30:00.252Z,3.7
2022-07-25T15:35:00.290Z,5.1
2022-07-25T15:40:00.411Z,4.8
2022-07-25T15:45:31.849Z,6.3
2022-07-25T15:50:00.274Z,3.9
2022-07-25T15:55:00.315Z,8.0
2022-07-25T16:00:00.347Z,7.9
2022-07-25T16:05:00.347Z,3.8
2022-07-25T16:10:00.326Z,4.6
2022-07-25T16:15:00.321Z,8.0
2022-07-25T16:20:00.342Z,4.3
2022-07-25T16:25:00.301Z,5.7
2022-07-25T16:30:00.338Z,8.5
2022-07-25T16:35:00.271Z,7.3
2022-07-25T16:40:00.287Z,1.1
2022-07-25T16:45:00.341Z,1.1
2022-07-25T16:50:00.316Z,4.0
2022-07-25T16:55:00.373Z,0.1
2022-07-25T17:00:00.420Z,5.6
2022-07-25T17:05:00.435Z,4.3
2022-07-25T17:10:00.277Z,0.1
2022-07-25T17:15:00.294Z,0.1
2022-07-25T17:20:00.606Z,0.2
2022-07-25T17:25:00.268Z,0.0
2022-07-25T17:30:00.332Z,1.2
2022-07-25T17:35:00.302Z,0.2
2022-07-25T17:40:00.298Z,0.2
2022-07-25T17:45:00.288Z,1.0
2022-07-25T17:50:00.260Z,3.7
2022-07-25T17:55:00.307Z,7.5
2022-07-25T18:00:00.299Z,8.5
2022-07-25T18:05:00.392Z,4.5
2022-07-25T18:10:00.247Z,3.8
2022-07-25T18:15:00.298Z,4.6
2022-07-25T18:20:00.276Z,4.5
2022-07-25T18:25:00.256Z,3.6
2022-07-25T18:30:00.278Z,3.1
2022-07-25T18:35:00.248Z,2.5
2022-07-25T18:40:00.294Z,2.5
2022-07-25T18:45:00.245Z,3.5
2022-07-25T18:50:00.287Z,4.0
2022-07-25T18:55:00.299Z,3.5
2022-07-25T19:00:03.835Z,4.1
2022-07-25T19:05:00.481Z,2.6
2022-07-25T19:10:00.291Z,2.2
2022-07-25T19:15:00.275Z,1.0
2022-07-25T19:20:00.317Z,2.9
2022-07-25T19:25:00.262Z,1.0
2022-07-25T19:30:00.290Z,6.0
2022-07-25T19:35:00.263Z,4.4
2022-07-25T19:40:00.252Z,5.5
2022-07-25T19:45:00.298Z,5.4
2022-07-25T19:50:00.261Z,3.5
2022-07-25T19:55:00.261Z,4.1
2022-07-25T20:00:00.260Z,3.0
2022-07-25T20:05:00.269Z,4.4
2022-07-25T20:10:00.265Z,3.9
2022-07-25T20:15:00.284Z,6.9
2022-07-25T20:20:00.252Z,3.9
2022-07-25T20:25:00.271Z,7.9
2022-07-25T20:30:00.299Z,8.6
2022-07-25T20:35:00.245Z,6.3
2022-07-25T20:40:00.314Z,6.1
2022-07-25T20:45:00.264Z,5.5
2022-07-25T20:50:00.260Z,5.1
2022-07-25T20:55:00.293Z,3.2
2022-07-25T21:00:00.340Z,1.8
2022-07-25T21:05:00.225Z,2.7
2022-07-25T21:10:00.280Z,3.8
2022-07-25T21:15:00.275Z,3.4
2022-07-25T21:20:00.291Z,5.0
2022-07-25T21:25:00.300Z,5.1
2022-07-25T21:30:00.325Z,7.6
2022-07-25T21:35:00.270Z,5.8
2022-07-25T21:40:00.280Z,4.5
2022-07-25T21:45:00.277Z,1.4
2022-07-25T21:50:00.286Z,1.8
2022-07-25T21:55:00.272Z,0.5
2022-07-25T22:00:00.409Z,2.9
2022-07-25T22:05:00.232Z,2.9
2022-07-25T22:10:00.256Z,1.0
2022-07-25T22:15:00.290Z,1.6
2022-07-25T22:20:00.272Z,0.7
2022-07-25T22:25:00.307Z,2.6
2022-07-25T22:30:00.321Z,2.8
2022-07-25T22:35:00.243Z,3.8
2022-07-25T22:40:01.780Z,1.5
2022-07-25T22:45:00.286Z,1.0
2022-07-25T22:50:00.352Z,0.4
2022-07-25T22:55:00.267Z,0.9
2022-07-25T23:00:00.333Z,2.4
2022-07-25T23:05:00.269Z,1.7
2022-07-25T23:10:00.271Z,0.3
2022-07-25T23:15:00.255Z,2.1
2022-07-25T23:20:00.248Z,0.7
2022-07-25T23:25:00.247Z,0.2
2022-07-25T23:30:00.264Z,0.0
2022-07-25T23:35:00.253Z,0.1
2022-07-25T23:40:00.276Z,0.2
2022-07-25T23:45:00.279Z,0.0
2022-07-25T23:50:00.247Z,0.0
2022-07-25T23:55:00.261Z,0.0
